Time;durP1;ratioP1;P1;durP2;ratioP2;P2;SDS_P1;SDS_P2;PMS_P1;PMS_P2;Temp;Humidity;BMP_temperature;BMP_pressure;BME280_temperature;BME280_humidity;BME280_pressure;Samples;Min_cycle;Max_cycle;Signal;HPM_P1;HPM_P2
2022/08/07 00:00:09;;;;;;;2.70;1.90;;;16.70;99.90;;;;;;5113692;28;20172;-42
2022/08/07 00:02:35;;;;;;;2.15;1.60;;;16.70;99.90;;;;;;5112874;28;20510;-42
2022/08/07 00:05:01;;;;;;;2.75;1.80;;;16.60;99.90;;;;;;5112802;28;20203;-42
2022/08/07 00:07:27;;;;;;;2.13;1.88;;;16.40;99.90;;;;;;5112585;28;20161;-42
2022/08/07 00:09:53;;;;;;;2.33;1.52;;;16.40;99.90;;;;;;5112877;28;20172;-43
2022/08/07 00:12:18;;;;;;;7.45;2.63;;;16.40;99.90;;;;;;5112798;28;20226;-42
2022/08/07 00:14:44;;;;;;;2.88;1.65;;;16.50;99.90;;;;;;5112766;28;20519;-42
2022/08/07 00:17:09;;;;;;;2.88;1.70;;;16.50;99.90;;;;;;5111750;28;20200;-44
2022/08/07 00:19:35;;;;;;;2.53;1.52;;;16.40;99.90;;;;;;5112659;28;20172;-43
2022/08/07 00:22:00;;;;;;;2.92;1.75;;;16.50;99.90;;;;;;5112702;28;20164;-43
2022/08/07 00:24:26;;;;;;;1.92;1.40;;;16.50;99.90;;;;;;5112510;28;20656;-43
2022/08/07 00:26:52;;;;;;;4.32;1.77;;;16.40;99.90;;;;;;5094353;28;20172;-43
2022/08/07 00:29:18;;;;;;;3.03;2.40;;;16.40;99.90;;;;;;5112846;28;20248;-43
2022/08/07 00:31:44;;;;;;;2.92;1.88;;;16.30;99.90;;;;;;5112560;28;20643;-42
2022/08/07 00:34:09;;;;;;;3.28;1.80;;;16.20;99.90;;;;;;5113057;28;20197;-43
2022/08/07 00:36:37;;;;;;;2.58;1.90;;;16.20;99.90;;;;;;5112423;28;20169;-49
2022/08/07 00:39:03;;;;;;;3.75;1.77;;;16.30;99.90;;;;;;5112357;28;20215;-47
2022/08/07 00:41:31;;;;;;;3.65;2.00;;;16.30;99.90;;;;;;5112388;28;20269;-44
2022/08/07 00:43:57;;;;;;;2.67;1.95;;;16.30;99.90;;;;;;5112416;28;20160;-43
2022/08/07 00:46:22;;;;;;;2.60;1.67;;;16.30;99.90;;;;;;5112299;28;20208;-46
2022/08/07 00:48:48;;;;;;;4.28;3.35;;;16.30;99.90;;;;;;5112439;28;20160;-43
2022/08/07 00:51:14;;;;;;;6.60;1.67;;;16.20;99.90;;;;;;5112125;28;20163;-42
2022/08/07 00:53:40;;;;;;;2.83;2.10;;;16.10;99.90;;;;;;5112655;28;20643;-43
2022/08/07 00:56:06;;;;;;;4.03;2.10;;;16.10;99.90;;;;;;5112238;28;20160;-43
2022/08/07 00:58:32;;;;;;;1.90;1.60;;;16.10;99.90;;;;;;5112251;28;20172;-43
2022/08/07 01:00:58;;;;;;;1.85;1.65;;;16.10;99.90;;;;;;5112234;28;20639;-44
2022/08/07 01:03:24;;;;;;;10.38;1.80;;;16.10;99.90;;;;;;5112180;28;20164;-43
2022/08/07 01:05:51;;;;;;;4.28;2.05;;;16.00;99.90;;;;;;5112004;28;20642;-43
2022/08/07 01:08:17;;;;;;;3.42;1.98;;;16.00;99.90;;;;;;5112187;28;20165;-43
2022/08/07 01:10:43;;;;;;;5.65;1.70;;;16.00;99.90;;;;;;5112081;28;20175;-42
2022/08/07 01:13:09;;;;;;;2.53;1.90;;;16.00;99.90;;;;;;5113305;28;20216;-42
2022/08/07 01:15:36;;;;;;;4.05;1.90;;;15.90;99.90;;;;;;5116500;28;20175;-42
2022/08/07 01:18:02;;;;;;;3.50;1.65;;;15.90;99.90;;;;;;5116201;28;20199;-43
2022/08/07 01:20:34;;;;;;;3.15;1.88;;;15.90;99.90;;;;;;5116500;28;20172;-45
2022/08/07 01:23:00;;;;;;;3.15;1.90;;;15.90;99.90;;;;;;5116131;28;20176;-46
2022/08/07 01:25:27;;;;;;;5.10;1.98;;;15.90;99.90;;;;;;5116218;28;20208;-43
2022/08/07 01:27:54;;;;;;;4.15;2.40;;;15.90;99.90;;;;;;5116045;28;20188;-43
2022/08/07 01:30:20;;;;;;;3.42;1.90;;;15.90;99.90;;;;;;5116007;28;20169;-43
2022/08/07 01:32:46;;;;;;;2.70;1.95;;;15.80;99.90;;;;;;5115972;28;20218;-45
2022/08/07 01:35:12;;;;;;;3.70;1.70;;;15.70;99.90;;;;;;5115981;28;20632;-44
2022/08/07 01:37:38;;;;;;;3.25;1.95;;;15.70;99.90;;;;;;5116165;28;20164;-43
2022/08/07 01:40:05;;;;;;;2.10;1.67;;;15.70;99.90;;;;;;5115857;28;20502;-43
2022/08/07 01:42:32;;;;;;;4.45;2.20;;;15.80;99.90;;;;;;5116040;28;20587;-43
2022/08/07 01:44:58;;;;;;;3.08;2.05;;;15.90;99.90;;;;;;5115731;28;20200;-44
2022/08/07 01:47:24;;;;;;;3.47;2.13;;;15.80;99.90;;;;;;5115824;28;20168;-44
2022/08/07 01:49:49;;;;;;;2.40;2.00;;;15.80;99.90;;;;;;5115752;28;20164;-43
2022/08/07 01:52:17;;;;;;;4.65;2.60;;;15.80;99.90;;;;;;5115665;28;20162;-43
2022/08/07 01:54:44;;;;;;;3.53;2.25;;;15.80;99.90;;;;;;5115539;28;20565;-43
2022/08/07 01:57:20;;;;;;;2.35;2.15;;;15.80;99.90;;;;;;5115806;28;20172;-42
2022/08/07 02:00:00;;;;;;;4.18;2.50;;;15.80;99.90;;;;;;5115651;28;20573;-44
2022/08/07 02:02:55;;;;;;;2.70;2.13;;;15.80;99.90;;;;;;5115363;28;20156;-45
2022/08/07 02:05:38;;;;;;;5.05;1.95;;;15.80;99.90;;;;;;5115261;28;20196;-43
2022/08/07 02:08:09;;;;;;;3.13;2.28;;;15.70;99.90;;;;;;5115509;28;20584;-42
2022/08/07 02:10:38;;;;;;;3.92;2.22;;;15.70;99.90;;;;;;5115432;28;20195;-42
2022/08/07 02:13:04;;;;;;;2.72;2.15;;;15.80;99.90;;;;;;5114942;28;20216;-44
2022/08/07 02:15:31;;;;;;;3.83;2.33;;;15.70;99.90;;;;;;5115037;28;20165;-43
2022/08/07 02:17:58;;;;;;;2.45;2.13;;;15.70;99.90;;;;;;5115042;28;20651;-45
2022/08/07 02:20:24;;;;;;;2.85;2.08;;;15.60;99.90;;;;;;5115008;28;20179;-43
2022/08/07 02:22:56;;;;;;;3.22;2.00;;;15.60;99.90;;;;;;5115218;28;20168;-43
2022/08/07 02:25:23;;;;;;;4.72;2.30;;;15.50;99.90;;;;;;5114897;28;20299;-43
2022/08/07 02:27:50;;;;;;;2.88;2.40;;;15.50;99.90;;;;;;5114913;28;20655;-43
2022/08/07 02:30:16;;;;;;;2.50;2.25;;;15.50;99.90;;;;;;5114923;28;20186;-45
2022/08/07 02:32:43;;;;;;;2.92;2.65;;;15.50;99.90;;;;;;5114879;28;20172;-49
2022/08/07 02:35:10;;;;;;;9.02;2.50;;;15.50;99.90;;;;;;5115164;28;20175;-47
2022/08/07 02:37:39;;;;;;;4.15;2.60;;;15.40;99.90;;;;;;5114775;28;20169;-49
2022/08/07 02:40:07;;;;;;;2.60;2.38;;;15.30;99.90;;;;;;5114853;28;20177;-50
2022/08/07 02:42:34;;;;;;;2.95;2.08;;;15.30;99.90;;;;;;5114840;28;20248;-42
2022/08/07 02:45:02;;;;;;;3.00;2.13;;;15.30;99.90;;;;;;5114472;28;20283;-48
2022/08/07 02:47:28;;;;;;;3.85;2.45;;;15.40;99.90;;;;;;5114529;28;20169;-50
2022/08/07 02:49:54;;;;;;;3.15;2.17;;;15.40;99.90;;;;;;5114713;28;20168;-53
2022/08/07 02:52:27;;;;;;;2.17;1.98;;;15.40;99.90;;;;;;5114081;28;20165;-52
2022/08/07 02:54:55;;;;;;;2.63;2.17;;;15.30;99.90;;;;;;5114361;28;20165;-53
2022/08/07 02:57:21;;;;;;;2.90;2.30;;;15.30;99.90;;;;;;5114303;28;20179;-51
2022/08/07 02:59:49;;;;;;;3.13;2.67;;;15.20;99.90;;;;;;5114303;28;20264;-52
2022/08/07 03:02:15;;;;;;;4.05;2.13;;;15.20;99.90;;;;;;5114433;28;20168;-52
2022/08/07 03:04:44;;;;;;;4.47;2.40;;;15.10;99.90;;;;;;5114120;28;20197;-49
2022/08/07 03:07:11;;;;;;;2.63;2.13;;;15.00;99.90;;;;;;5114729;28;20175;-48
2022/08/07 03:09:36;;;;;;;4.13;2.53;;;15.00;99.90;;;;;;5114537;28;20632;-46
2022/08/07 03:12:04;;;;;;;2.70;2.28;;;14.90;99.90;;;;;;5113892;28;20215;-51
2022/08/07 03:14:31;;;;;;;3.28;2.50;;;14.70;99.90;;;;;;5114268;28;20172;-49
2022/08/07 03:16:57;;;;;;;5.72;2.33;;;14.60;99.90;;;;;;5114043;28;20184;-49
2022/08/07 03:19:24;;;;;;;4.55;2.22;;;14.60;99.90;;;;;;5113894;28;20172;-47
2022/08/07 03:21:51;;;;;;;4.35;2.50;;;14.60;99.90;;;;;;5113816;28;20214;-45
2022/08/07 03:24:17;;;;;;;2.45;2.20;;;14.60;99.90;;;;;;5113757;28;20566;-42
2022/08/07 03:26:45;;;;;;;5.20;2.78;;;14.60;99.90;;;;;;5113818;28;20184;-42
2022/08/07 03:29:12;;;;;;;3.22;2.53;;;14.70;99.90;;;;;;5114121;28;20160;-43
2022/08/07 03:31:39;;;;;;;6.35;3.13;;;14.60;99.90;;;;;;5114250;28;20168;-49
2022/08/07 03:34:06;;;;;;;2.80;2.40;;;14.50;99.90;;;;;;5113573;28;20164;-49
2022/08/07 03:36:33;;;;;;;5.32;2.60;;;14.50;99.90;;;;;;5112911;28;20542;-45
2022/08/07 03:39:06;;;;;;;3.58;2.33;;;14.50;99.90;;;;;;5113506;28;20217;-46
2022/08/07 03:41:32;;;;;;;4.13;2.25;;;14.40;99.90;;;;;;5113726;28;20244;-48
2022/08/07 03:43:58;;;;;;;3.42;2.30;;;14.40;99.90;;;;;;5113500;28;20640;-46
2022/08/07 03:46:25;;;;;;;4.90;2.65;;;14.40;99.90;;;;;;5113213;28;20722;-50
2022/08/07 03:48:51;;;;;;;3.17;2.40;;;14.40;99.90;;;;;;5113359;28;20189;-49
2022/08/07 03:51:19;;;;;;;4.22;2.47;;;14.50;99.90;;;;;;5113285;28;20534;-50
2022/08/07 03:53:44;;;;;;;2.67;2.47;;;14.50;99.90;;;;;;5113250;28;20173;-47
2022/08/07 03:56:10;;;;;;;3.38;2.67;;;14.50;99.90;;;;;;5113613;28;20171;-44
2022/08/07 03:58:37;;;;;;;4.30;2.88;;;14.50;99.90;;;;;;5113706;28;20172;-45
2022/08/07 04:01:03;;;;;;;8.40;2.45;;;14.40;99.90;;;;;;5113127;28;20179;-46
2022/08/07 04:03:30;;;;;;;8.77;3.13;;;14.50;99.90;;;;;;5113050;28;20594;-48
2022/08/07 04:05:55;;;;;;;3.60;2.92;;;14.50;99.90;;;;;;5112918;28;20218;-45
2022/08/07 04:08:22;;;;;;;4.75;2.72;;;14.40;99.90;;;;;;5112932;28;20161;-43
2022/08/07 04:10:49;;;;;;;6.15;3.05;;;14.40;99.90;;;;;;5112911;28;20164;-46
2022/08/07 04:13:15;;;;;;;3.53;2.42;;;14.30;99.90;;;;;;5112721;28;20578;-46
2022/08/07 04:15:42;;;;;;;3.15;2.85;;;14.30;99.90;;;;;;5113074;28;20169;-44
2022/08/07 04:18:07;;;;;;;4.72;3.10;;;14.30;99.90;;;;;;5094836;28;20221;-48
2022/08/07 04:20:33;;;;;;;2.83;2.53;;;14.40;99.90;;;;;;5113038;28;20255;-48
2022/08/07 04:22:59;;;;;;;2.85;2.58;;;14.40;99.90;;;;;;5112646;28;20161;-44
2022/08/07 04:25:25;;;;;;;4.20;3.33;;;14.40;99.90;;;;;;5112852;28;20677;-42
2022/08/07 04:27:51;;;;;;;5.13;3.60;;;14.30;99.90;;;;;;5112745;28;20202;-44
2022/08/07 04:30:17;;;;;;;4.97;3.08;;;14.20;99.90;;;;;;5112739;28;20172;-44
2022/08/07 04:32:43;;;;;;;3.95;2.95;;;14.30;99.90;;;;;;5112531;28;20161;-44
2022/08/07 04:35:09;;;;;;;4.30;3.38;;;14.10;99.90;;;;;;5112832;28;20172;-44
2022/08/07 04:37:35;;;;;;;4.72;3.13;;;14.10;99.90;;;;;;5112773;28;20167;-47
2022/08/07 04:40:03;;;;;;;3.33;3.03;;;14.20;99.90;;;;;;5112433;28;20160;-43
2022/08/07 04:42:30;;;;;;;4.60;3.67;;;14.30;99.90;;;;;;5112334;28;20165;-45
2022/08/07 04:44:57;;;;;;;3.55;2.85;;;14.30;99.90;;;;;;5112572;28;20208;-47
2022/08/07 04:47:59;;;;;;;6.60;3.60;;;14.40;99.90;;;;;;5112358;28;20160;-47
2022/08/07 04:50:44;;;;;;;5.28;3.40;;;14.20;99.90;;;;;;5112301;28;20164;-51
2022/08/07 04:53:12;;;;;;;4.13;3.40;;;14.10;99.90;;;;;;5112814;28;20164;-45
2022/08/07 04:55:52;;;;;;;4.47;3.13;;;14.20;99.90;;;;;;5112545;28;20165;-47
2022/08/07 04:58:25;;;;;;;3.80;3.22;;;14.30;99.90;;;;;;5112246;28;20277;-46
2022/08/07 05:01:17;;;;;;;4.00;3.30;;;14.40;99.90;;;;;;5112161;28;20179;-51
2022/08/07 05:04:10;;;;;;;6.80;3.45;;;14.50;99.90;;;;;;5112326;28;20168;-45
2022/08/07 05:07:17;;;;;;;4.63;3.50;;;14.40;99.90;;;;;;5112569;28;20265;-50
2022/08/07 05:10:01;;;;;;;5.90;3.58;;;14.30;99.90;;;;;;5112126;28;20156;-46
2022/08/07 05:12:35;;;;;;;3.72;3.33;;;14.50;99.90;;;;;;5111892;28;20216;-48
2022/08/07 05:15:17;;;;;;;5.35;3.60;;;14.50;99.90;;;;;;5111999;28;20271;-46
2022/08/07 05:17:48;;;;;;;9.30;4.07;;;14.80;99.90;;;;;;5111968;28;20513;-45
2022/08/07 05:20:17;;;;;;;7.35;3.75;;;14.80;99.90;;;;;;5112177;28;20527;-44
2022/08/07 05:22:45;;;;;;;4.47;3.25;;;15.00;99.90;;;;;;5111891;28;20659;-48
2022/08/07 05:25:14;;;;;;;8.73;3.42;;;15.20;99.90;;;;;;5112117;28;20201;-43
2022/08/07 05:27:41;;;;;;;7.25;3.72;;;15.30;99.90;;;;;;5111898;28;20244;-43
2022/08/07 05:30:08;;;;;;;4.40;3.42;;;15.40;99.90;;;;;;5112309;28;20176;-48
2022/08/07 05:32:35;;;;;;;5.28;3.78;;;15.50;99.90;;;;;;5111872;28;20164;-45
2022/08/07 05:35:01;;;;;;;4.00;3.10;;;15.50;99.90;;;;;;5111829;28;20546;-48
2022/08/07 05:37:28;;;;;;;7.10;3.83;;;15.50;99.90;;;;;;5112048;28;20170;-44
2022/08/07 05:39:55;;;;;;;5.50;3.97;;;15.50;99.90;;;;;;5111850;28;20161;-43
2022/08/07 05:42:21;;;;;;;8.30;4.07;;;15.40;99.90;;;;;;5111775;28;20225;-46
2022/08/07 05:44:48;;;;;;;7.38;3.85;;;15.40;99.90;;;;;;5093374;28;20567;-46
2022/08/07 05:47:18;;;;;;;7.90;4.40;;;15.50;99.90;;;;;;5111822;28;20164;-52
2022/08/07 05:49:47;;;;;;;6.22;3.72;;;15.50;99.90;;;;;;5111733;28;20172;-43
2022/08/07 05:52:12;;;;;;;6.07;4.18;;;15.60;99.90;;;;;;5111727;28;20176;-47
2022/08/07 05:54:38;;;;;;;4.93;3.38;;;15.60;99.90;;;;;;5112091;28;20173;-43
2022/08/07 05:57:05;;;;;;;6.88;3.75;;;15.70;99.90;;;;;;5111585;28;20197;-43
2022/08/07 05:59:35;;;;;;;5.07;3.47;;;15.90;99.90;;;;;;5113103;28;20161;-43
2022/08/07 06:02:02;;;;;;;5.55;3.60;;;16.00;99.90;;;;;;5115430;28;20164;-44
2022/08/07 06:04:29;;;;;;;5.18;3.85;;;16.20;99.90;;;;;;5115244;28;20163;-43
2022/08/07 06:06:55;;;;;;;5.40;3.72;;;16.30;99.90;;;;;;5115529;28;20180;-53
2022/08/07 06:09:21;;;;;;;3.80;3.40;;;16.50;99.90;;;;;;5115235;28;20185;-44
2022/08/07 06:11:47;;;;;;;6.75;3.53;;;16.60;99.90;;;;;;5115199;28;20239;-43
2022/08/07 06:14:13;;;;;;;9.18;4.13;;;16.50;99.90;;;;;;5115156;28;20169;-43
2022/08/07 06:16:39;;;;;;;5.15;3.60;;;16.60;99.90;;;;;;5115106;28;20160;-42
2022/08/07 06:19:06;;;;;;;5.13;3.80;;;16.70;99.90;;;;;;5115716;28;20197;-44
2022/08/07 06:21:32;;;;;;;4.65;3.97;;;16.80;99.90;;;;;;5115037;28;20640;-43
2022/08/07 06:23:58;;;;;;;5.85;3.38;;;16.80;99.90;;;;;;5114964;28;20209;-44
2022/08/07 06:26:24;;;;;;;4.55;3.72;;;16.90;99.90;;;;;;5115074;28;20562;-46
2022/08/07 06:28:52;;;;;;;6.18;3.78;;;16.90;99.90;;;;;;5114920;28;20209;-44
2022/08/07 06:31:18;;;;;;;5.43;3.70;;;17.00;99.90;;;;;;5115075;28;20169;-43
2022/08/07 06:33:45;;;;;;;6.60;3.60;;;17.10;99.90;;;;;;5114805;28;20470;-43
2022/08/07 06:36:11;;;;;;;7.03;3.90;;;17.20;99.90;;;;;;5114903;28;20196;-43
2022/08/07 06:38:36;;;;;;;4.95;3.50;;;17.20;99.90;;;;;;5114966;28;20249;-46
2022/08/07 06:41:06;;;;;;;6.32;3.47;;;17.20;99.90;;;;;;5114724;28;20639;-43
2022/08/07 06:43:34;;;;;;;3.83;3.42;;;17.40;99.90;;;;;;5114305;28;20175;-45
2022/08/07 06:46:01;;;;;;;3.55;3.08;;;17.50;99.90;;;;;;5114703;28;20212;-47
2022/08/07 06:48:27;;;;;;;5.40;3.25;;;17.50;99.90;;;;;;5114460;28;20172;-43
2022/08/07 06:50:57;;;;;;;4.28;2.65;;;17.70;99.90;;;;;;5114428;28;20540;-43
2022/08/07 06:53:24;;;;;;;3.10;2.05;;;17.70;99.90;;;;;;5114326;28;20209;-43
2022/08/07 06:55:50;;;;;;;3.95;2.35;;;17.80;99.90;;;;;;5114474;28;20688;-43
2022/08/07 06:58:18;;;;;;;8.00;2.67;;;18.00;99.90;;;;;;5114333;28;20280;-43
2022/08/07 07:00:45;;;;;;;3.65;2.53;;;18.20;99.90;;;;;;5113934;28;20189;-43
2022/08/07 07:03:11;;;;;;;7.32;2.30;;;18.30;99.90;;;;;;5113882;28;20165;-43
2022/08/07 07:05:39;;;;;;;4.47;2.58;;;18.50;99.90;;;;;;5114137;28;20208;-43
2022/08/07 07:08:04;;;;;;;2.75;2.55;;;18.50;99.90;;;;;;5114102;28;20188;-43
2022/08/07 07:10:33;;;;;;;2.92;2.20;;;18.60;99.90;;;;;;5112633;28;20656;-43
2022/08/07 07:13:13;;;;;;;3.05;2.08;;;18.70;99.90;;;;;;5113746;28;20753;-44
2022/08/07 07:15:55;;;;;;;3.78;2.25;;;17.10;99.90;;;;;;5114313;28;20618;-43
2022/08/07 07:18:24;;;;;;;2.33;2.13;;;18.80;99.90;;;;;;5114030;28;20593;-43
2022/08/07 07:20:57;;;;;;;2.78;2.22;;;19.00;99.90;;;;;;5113751;28;20213;-43
2022/08/07 07:23:25;;;;;;;1.92;1.75;;;19.00;99.90;;;;;;5113842;28;20165;-43
2022/08/07 07:25:55;;;;;;;2.55;2.35;;;19.20;99.90;;;;;;5113613;28;20307;-43
2022/08/07 07:28:36;;;;;;;8.25;2.40;;;19.20;99.90;;;;;;5113403;28;20209;-43
2022/08/07 07:31:09;;;;;;;2.33;1.83;;;19.30;99.90;;;;;;5113804;28;20168;-44
2022/08/07 07:33:37;;;;;;;2.97;2.10;;;19.50;99.90;;;;;;5113855;28;20168;-43
2022/08/07 07:36:03;;;;;;;3.60;2.10;;;19.50;99.90;;;;;;5113104;28;20169;-43
2022/08/07 07:38:31;;;;;;;2.78;1.88;;;19.50;99.90;;;;;;5113180;28;20795;-44
2022/08/07 07:41:01;;;;;;;2.30;1.80;;;19.50;99.90;;;;;;5113484;28;20164;-44
2022/08/07 07:43:30;;;;;;;2.20;2.00;;;19.70;99.90;;;;;;5113298;28;20161;-43
2022/08/07 07:45:56;;;;;;;3.28;2.30;;;19.70;99.90;;;;;;5113318;28;20208;-42
2022/08/07 07:48:23;;;;;;;2.40;1.80;;;19.80;99.90;;;;;;5113283;28;20243;-42
2022/08/07 07:50:51;;;;;;;6.75;2.03;;;19.90;99.90;;;;;;5112852;28;20168;-43
2022/08/07 07:53:19;;;;;;;2.63;1.77;;;19.90;99.90;;;;;;5113227;28;20172;-43
2022/08/07 07:55:45;;;;;;;2.13;1.60;;;20.00;99.90;;;;;;5113156;28;20297;-42
2022/08/07 07:58:11;;;;;;;1.98;1.55;;;20.30;99.90;;;;;;5112750;28;20260;-43
2022/08/07 08:00:39;;;;;;;1.40;1.30;;;20.30;99.90;;;;;;5113378;28;20180;-43
2022/08/07 08:03:09;;;;;;;2.60;1.23;;;20.40;99.90;;;;;;5113354;28;20164;-43
2022/08/07 08:05:42;;;;;;;4.32;1.70;;;20.50;99.90;;;;;;5113262;28;20232;-43
2022/08/07 08:08:10;;;;;;;2.10;1.75;;;20.60;99.90;;;;;;5112947;28;20160;-46
2022/08/07 08:10:37;;;;;;;2.35;1.60;;;20.60;99.90;;;;;;5113154;28;20647;-43
2022/08/07 08:13:04;;;;;;;2.03;1.52;;;21.00;99.90;;;;;;5112754;28;20247;-43
2022/08/07 08:15:36;;;;;;;3.72;1.52;;;21.20;99.90;;;;;;5112711;28;20175;-43
2022/08/07 08:18:04;;;;;;;2.78;1.60;;;21.10;99.90;;;;;;5112925;28;20168;-43
2022/08/07 08:20:33;;;;;;;1.55;1.40;;;21.10;99.90;;;;;;5112433;28;20161;-43
2022/08/07 08:28:31;;;;;;;1.55;1.20;;;21.10;99.90;;;;;;5112485;28;20163;-46
2022/08/07 08:30:59;;;;;;;1.17;1.08;;;21.40;99.90;;;;;;5112770;28;20551;-43
2022/08/07 08:33:29;;;;;;;0.98;0.77;;;21.50;99.90;;;;;;5112462;28;20157;-44
2022/08/07 08:35:56;;;;;;;1.27;0.93;;;21.50;99.90;;;;;;5112081;28;20658;-44
2022/08/07 08:38:26;;;;;;;1.33;0.95;;;21.70;99.90;;;;;;5112495;28;20169;-44
2022/08/07 08:41:12;;;;;;;0.70;0.70;;;21.80;99.90;;;;;;5112405;28;20508;-42
2022/08/07 08:43:57;;;;;;;0.85;0.85;;;21.80;99.90;;;;;;5111348;28;20555;-43
2022/08/07 08:46:42;;;;;;;1.15;0.85;;;22.10;99.90;;;;;;5111839;28;20693;-43
2022/08/07 08:49:14;;;;;;;0.95;0.80;;;22.10;99.90;;;;;;5112672;28;20222;-43
2022/08/07 08:51:56;;;;;;;0.80;0.80;;;22.10;99.90;;;;;;5112326;28;20165;-43
2022/08/07 08:54:31;;;;;;;0.90;0.80;;;22.10;99.90;;;;;;5112176;28;20168;-43
2022/08/07 08:57:05;;;;;;;2.33;1.15;;;22.30;99.90;;;;;;5111928;28;20160;-43
2022/08/07 08:59:46;;;;;;;1.05;0.98;;;22.40;99.90;;;;;;5112347;28;20204;-43
2022/08/07 09:02:37;;;;;;;1.25;0.82;;;21.80;99.90;;;;;;5112095;28;20164;-45
2022/08/07 09:05:09;;;;;;;1.75;1.27;;;22.70;99.90;;;;;;5112043;28;20200;-43
2022/08/07 09:07:50;;;;;;;0.90;0.73;;;22.80;99.90;;;;;;5112526;28;20188;-44
2022/08/07 09:10:24;;;;;;;1.30;0.80;;;22.90;99.90;;;;;;5112037;28;20692;-43
2022/08/07 09:12:59;;;;;;;1.20;0.85;;;22.80;99.90;;;;;;5111960;28;20269;-46
2022/08/07 09:15:53;;;;;;;1.42;1.00;;;23.00;99.90;;;;;;5112196;28;20171;-43
2022/08/07 09:18:30;;;;;;;1.35;0.90;;;23.00;99.90;;;;;;5111942;28;20169;-44
2022/08/07 09:21:35;;;;;;;1.02;0.63;;;23.20;99.90;;;;;;5111972;28;20483;-43
2022/08/07 09:24:22;;;;;;;0.73;0.73;;;23.40;97.10;;;;;;5111353;28;20172;-43
2022/08/07 09:26:59;;;;;;;1.48;0.68;;;23.40;95.90;;;;;;5111913;28;20597;-43
2022/08/07 09:29:51;;;;;;;1.67;0.80;;;23.50;92.70;;;;;;5111982;28;20164;-44
2022/08/07 09:32:44;;;;;;;1.13;1.02;;;23.50;93.70;;;;;;5111864;28;20535;-42
2022/08/07 09:35:40;;;;;;;0.85;0.55;;;23.50;93.50;;;;;;5114494;28;20160;-43
2022/08/07 09:38:28;;;;;;;1.30;0.95;;;23.70;92.20;;;;;;5116181;28;20169;-42
2022/08/07 09:41:09;;;;;;;1.38;0.90;;;23.70;92.20;;;;;;5115561;28;20198;-46
2022/08/07 09:43:48;;;;;;;0.77;0.77;;;23.80;92.20;;;;;;5115847;28;20669;-49
2022/08/07 09:46:17;;;;;;;0.65;0.65;;;23.90;91.50;;;;;;5115871;28;20212;-46
2022/08/07 09:48:57;;;;;;;3.90;0.93;;;23.70;90.30;;;;;;5115568;28;20156;-47
2022/08/07 09:51:35;;;;;;;2.03;0.80;;;23.60;91.20;;;;;;5115600;28;20684;-51
2022/08/07 09:54:05;;;;;;;2.00;0.90;;;23.80;89.70;;;;;;5115307;28;20168;-51
2022/08/07 09:56:51;;;;;;;1.48;0.93;;;24.10;89.00;;;;;;5115450;28;20165;-51
2022/08/07 09:59:27;;;;;;;2.13;1.27;;;24.20;89.80;;;;;;5115615;28;20160;-51
2022/08/07 10:02:14;;;;;;;1.80;1.05;;;24.10;90.40;;;;;;5115467;28;20172;-51
2022/08/07 10:04:58;;;;;;;0.98;0.85;;;24.30;90.40;;;;;;5115222;28;20532;-51
2022/08/07 10:07:53;;;;;;;0.82;0.82;;;24.20;85.70;;;;;;5115326;28;20172;-51
2022/08/07 10:10:31;;;;;;;1.30;1.10;;;24.10;87.50;;;;;;5060239;28;20178;-51
2022/08/07 10:13:08;;;;;;;1.13;0.80;;;24.10;86.20;;;;;;5115059;28;20299;-50
2022/08/07 10:16:21;;;;;;;1.15;0.75;;;25.20;88.60;;;;;;5115404;28;20631;-51
2022/08/07 10:19:09;;;;;;;3.90;1.10;;;24.30;87.60;;;;;;5109836;28;20180;-51
2022/08/07 10:21:55;;;;;;;1.25;1.05;;;24.20;85.80;;;;;;5115236;28;20171;-49
2022/08/07 10:24:46;;;;;;;0.73;0.60;;;24.40;86.30;;;;;;5114978;28;20354;-51
2022/08/07 10:27:15;;;;;;;1.55;0.40;;;24.70;84.60;;;;;;5115152;28;20180;-41
2022/08/07 10:30:00;;;;;;;1.50;0.75;;;24.60;83.90;;;;;;5114371;28;20839;-42
2022/08/07 10:32:44;;;;;;;1.73;0.98;;;24.80;83.50;;;;;;5115171;28;20259;-42
2022/08/07 10:35:23;;;;;;;2.75;1.02;;;24.90;83.60;;;;;;5114866;28;20164;-44
2022/08/07 10:37:54;;;;;;;0.75;0.75;;;25.10;83.20;;;;;;5114492;28;20167;-43
2022/08/07 10:40:47;;;;;;;2.20;0.95;;;25.20;84.00;;;;;;5114756;28;20251;-42
2022/08/07 10:43:26;;;;;;;1.27;0.85;;;25.20;81.40;;;;;;5114943;28;20188;-42
2022/08/07 10:46:02;;;;;;;1.63;1.15;;;25.30;81.10;;;;;;5114306;28;20211;-42
2022/08/07 10:49:08;;;;;;;1.60;0.90;;;24.90;77.50;;;;;;5114194;28;20153;-42
2022/08/07 10:51:56;;;;;;;2.28;0.73;;;25.10;77.50;;;;;;5115018;28;20172;-42
2022/08/07 10:54:30;;;;;;;0.63;0.63;;;25.30;77.90;;;;;;5114504;28;20260;-43
2022/08/07 10:56:59;;;;;;;3.33;0.90;;;25.40;78.60;;;;;;5114368;28;20174;-42
2022/08/07 10:59:30;;;;;;;2.33;0.80;;;25.30;75.70;;;;;;5114515;28;20164;-44
2022/08/07 11:02:11;;;;;;;1.13;0.95;;;25.40;79.80;;;;;;5114222;28;20241;-42
2022/08/07 11:05:08;;;;;;;1.75;0.77;;;25.60;75.50;;;;;;5114373;28;20160;-43
2022/08/07 11:08:02;;;;;;;1.13;0.80;;;25.60;74.80;;;;;;5114409;28;20293;-42
2022/08/07 11:11:00;;;;;;;0.60;0.60;;;25.60;74.90;;;;;;5111778;28;20176;-43
2022/08/07 11:13:35;;;;;;;1.00;0.90;;;25.60;75.70;;;;;;5105547;28;20215;-44
2022/08/07 11:16:27;;;;;;;0.70;0.70;;;25.80;75.50;;;;;;5113980;28;20289;-43
2022/08/07 11:18:57;;;;;;;1.10;0.60;;;25.90;75.50;;;;;;5113916;28;20186;-43
2022/08/07 11:21:36;;;;;;;1.95;0.98;;;26.00;75.50;;;;;;5113719;28;20153;-42
2022/08/07 11:24:09;;;;;;;0.50;0.50;;;26.00;74.70;;;;;;5114083;28;20174;-42
2022/08/07 11:26:54;;;;;;;1.00;0.95;;;25.70;71.80;;;;;;5112860;28;20566;-46
2022/08/07 11:29:41;;;;;;;0.70;0.70;;;25.90;73.10;;;;;;5112915;28;20179;-51
2022/08/07 11:32:21;;;;;;;1.08;0.70;;;25.80;73.10;;;;;;5113610;28;20225;-51
2022/08/07 11:35:05;;;;;;;0.80;0.70;;;25.60;72.20;;;;;;5095692;28;20627;-49
2022/08/07 11:38:00;;;;;;;0.88;0.70;;;25.80;71.90;;;;;;5112891;28;20214;-50
2022/08/07 11:40:35;;;;;;;0.70;0.70;;;26.00;70.50;;;;;;5113098;28;20167;-51
2022/08/07 11:43:11;;;;;;;1.58;1.48;;;25.90;71.70;;;;;;5113058;28;20164;-51
2022/08/07 11:45:55;;;;;;;1.52;0.73;;;26.00;72.20;;;;;;5113305;28;20215;-50
2022/08/07 11:48:39;;;;;;;9.38;2.10;;;25.90;72.30;;;;;;5113243;28;20160;-50
2022/08/07 11:51:08;;;;;;;1.98;0.70;;;26.00;72.80;;;;;;5112022;28;20631;-51
2022/08/07 11:53:56;;;;;;;2.65;0.90;;;26.10;72.50;;;;;;5113160;28;20326;-51
2022/08/07 11:56:31;;;;;;;1.27;0.80;;;26.10;71.60;;;;;;5112710;28;20178;-49
2022/08/07 11:59:20;;;;;;;2.05;0.90;;;26.10;71.70;;;;;;5112407;28;20160;-51
2022/08/07 12:02:14;;;;;;;0.73;0.73;;;26.10;70.30;;;;;;5113052;28;20192;-51
2022/08/07 12:05:15;;;;;;;2.08;0.85;;;25.90;71.10;;;;;;5094585;28;20198;-51
2022/08/07 12:07:53;;;;;;;3.13;1.63;;;26.20;69.70;;;;;;5112598;28;20171;-51
2022/08/07 12:10:39;;;;;;;0.80;0.80;;;26.40;71.50;;;;;;5112803;28;20691;-46
2022/08/07 12:13:22;;;;;;;2.13;0.95;;;26.50;72.70;;;;;;5112477;28;20218;-45
2022/08/07 12:15:52;;;;;;;0.90;0.90;;;26.50;73.60;;;;;;5112833;28;20190;-51
2022/08/07 12:18:24;;;;;;;2.92;1.10;;;26.70;74.90;;;;;;5112379;28;20160;-51
2022/08/07 12:21:13;;;;;;;0.90;0.80;;;26.30;71.00;;;;;;5112539;28;20171;-51
2022/08/07 12:23:50;;;;;;;1.27;0.90;;;26.60;73.80;;;;;;5112371;28;20160;-50
2022/08/07 12:26:37;;;;;;;1.20;1.00;;;26.70;72.00;;;;;;5111791;28;20210;-51
2022/08/07 12:29:24;;;;;;;1.65;1.25;;;26.70;71.30;;;;;;5112651;28;20156;-50
2022/08/07 12:32:22;;;;;;;1.15;1.00;;;26.60;72.10;;;;;;5112115;28;20168;-50
2022/08/07 12:34:50;;;;;;;1.48;1.00;;;26.60;70.80;;;;;;5098799;28;20268;-50
2022/08/07 12:37:18;;;;;;;2.38;0.88;;;26.90;70.30;;;;;;5112292;28;20175;-51
2022/08/07 12:39:48;;;;;;;1.88;1.00;;;26.70;70.60;;;;;;5111626;28;20209;-45
2022/08/07 12:42:21;;;;;;;1.10;0.77;;;26.80;70.80;;;;;;5111834;28;20164;-49
2022/08/07 12:44:49;;;;;;;3.13;1.02;;;26.60;69.00;;;;;;5111969;28;20164;-46
2022/08/07 12:47:37;;;;;;;1.33;0.90;;;26.50;69.70;;;;;;5111827;28;20207;-51
2022/08/07 12:50:03;;;;;;;1.77;0.73;;;26.80;68.70;;;;;;5112483;28;20176;-48
2022/08/07 12:52:50;;;;;;;1.35;0.80;;;26.70;68.90;;;;;;5112279;28;20168;-51
2022/08/07 12:55:48;;;;;;;0.95;0.90;;;26.70;71.30;;;;;;5111852;28;20704;-50
2022/08/07 12:58:18;;;;;;;2.53;0.70;;;26.80;69.40;;;;;;5099900;28;20187;-41
2022/08/07 13:01:01;;;;;;;0.70;0.70;;;26.90;67.80;;;;;;5111628;28;20156;-43
2022/08/07 13:03:55;;;;;;;1.65;1.00;;;26.90;68.70;;;;;;5112025;28;20156;-42
2022/08/07 13:06:56;;;;;;;1.05;0.90;;;27.10;68.50;;;;;;5089640;28;20296;-44
2022/08/07 13:09:46;;;;;;;1.30;0.80;;;27.10;68.10;;;;;;5113505;28;20217;-44
2022/08/07 13:12:22;;;;;;;1.85;0.70;;;27.20;69.10;;;;;;5116293;28;20325;-43
2022/08/07 13:15:00;;;;;;;0.80;0.80;;;27.00;68.20;;;;;;5116319;28;20187;-42
2022/08/07 13:17:38;;;;;;;0.70;0.70;;;27.10;68.10;;;;;;5116406;28;20522;-45
2022/08/07 13:20:25;;;;;;;1.23;1.10;;;26.60;65.60;;;;;;5115477;28;20536;-41
2022/08/07 13:23:02;;;;;;;0.85;0.85;;;27.10;67.70;;;;;;5115973;28;20176;-41